createdAt,value
2023-05-08T00:01:45.757Z,4.15
2023-05-08T00:04:13.587Z,4.45
2023-05-08T00:06:41.180Z,3.92
2023-05-08T00:09:08.608Z,4.22
2023-05-08T00:11:36.102Z,4.47
2023-05-08T00:14:03.574Z,3.88
2023-05-08T00:16:32.369Z,4.93
2023-05-08T00:19:00.700Z,4.50
2023-05-08T00:21:28.229Z,4.72
2023-05-08T00:23:55.810Z,4.38
2023-05-08T00:26:23.309Z,4.20
2023-05-08T00:28:50.946Z,4.43
2023-05-08T00:31:18.622Z,5.03
2023-05-08T00:33:46.034Z,5.05
2023-05-08T00:36:15.947Z,5.00
2023-05-08T00:38:43.441Z,4.65
2023-05-08T00:41:10.908Z,4.95
2023-05-08T00:43:40.206Z,5.53
2023-05-08T00:46:09.926Z,5.38
2023-05-08T00:48:39.234Z,5.50
2023-05-08T00:51:08.414Z,4.93
2023-05-08T00:53:39.135Z,5.15
2023-05-08T00:56:10.252Z,5.60
2023-05-08T00:58:38.446Z,5.07
2023-05-08T01:01:06.067Z,5.18
2023-05-08T01:03:36.010Z,5.50
2023-05-08T01:06:04.597Z,5.28
2023-05-08T01:08:32.447Z,5.30
2023-05-08T01:11:48.209Z,5.53
2023-05-08T01:14:32.243Z,5.90
2023-05-08T01:17:16.788Z,5.40
2023-05-08T01:20:17.781Z,5.57
2023-05-08T01:23:22.274Z,6.43
2023-05-08T01:26:24.248Z,5.82
2023-05-08T01:29:34.127Z,5.82
2023-05-08T01:32:19.260Z,6.17
2023-05-08T01:35:31.467Z,5.30
2023-05-08T01:38:32.439Z,6.10
2023-05-08T01:41:10.293Z,6.77
2023-05-08T01:43:52.331Z,5.87
2023-05-08T01:46:28.343Z,5.60
2023-05-08T01:49:33.916Z,6.27
2023-05-08T01:52:07.498Z,6.03
2023-05-08T01:54:43.207Z,5.67
2023-05-08T01:57:12.491Z,5.97
2023-05-08T01:59:43.122Z,6.37
2023-05-08T02:02:12.269Z,6.15
2023-05-08T02:04:42.904Z,5.67
2023-05-08T02:07:11.348Z,6.70
2023-05-08T02:09:41.206Z,6.37
2023-05-08T02:12:09.782Z,7.17
2023-05-08T02:14:38.987Z,6.53
2023-05-08T02:17:09.516Z,6.43
2023-05-08T02:19:39.865Z,6.60
2023-05-08T02:22:09.472Z,5.70
2023-05-08T02:24:38.269Z,6.87
2023-05-08T02:27:06.831Z,6.53
2023-05-08T02:29:36.355Z,6.13
2023-05-08T02:32:04.407Z,6.43
2023-05-08T02:34:32.549Z,6.50
2023-05-08T02:37:01.681Z,6.47
2023-05-08T02:39:32.241Z,6.93
2023-05-08T02:42:00.983Z,6.80
2023-05-08T02:44:29.906Z,7.03
2023-05-08T02:47:11.505Z,6.47
2023-05-08T02:50:09.816Z,6.93
2023-05-08T02:52:49.672Z,7.30
2023-05-08T02:55:42.912Z,6.23
2023-05-08T02:58:24.117Z,6.47
2023-05-08T03:01:17.122Z,6.70
2023-05-08T03:03:46.661Z,7.13
2023-05-08T03:06:19.388Z,7.10
2023-05-08T03:08:48.621Z,6.80
2023-05-08T03:11:21.816Z,6.80
2023-05-08T03:13:50.454Z,7.20
2023-05-08T03:16:25.495Z,6.70
2023-05-08T03:18:58.242Z,6.80
2023-05-08T03:21:30.478Z,6.50
2023-05-08T03:24:00.651Z,6.43
2023-05-08T03:26:28.933Z,6.30
2023-05-08T03:28:57.657Z,6.67
2023-05-08T03:31:32.257Z,6.77
2023-05-08T03:34:00.638Z,6.67
2023-05-08T03:36:29.006Z,6.70
2023-05-08T03:38:56.863Z,6.73
2023-05-08T03:41:25.839Z,6.70
2023-05-08T03:43:54.964Z,6.97
2023-05-08T03:46:23.318Z,6.57
2023-05-08T03:48:51.841Z,6.53
2023-05-08T03:51:21.279Z,7.27
2023-05-08T03:53:49.996Z,6.57
2023-05-08T03:56:18.602Z,7.03
2023-05-08T03:59:03.246Z,6.57
2023-05-08T04:01:48.814Z,6.80
2023-05-08T04:04:33.907Z,7.33
2023-05-08T04:07:22.811Z,6.97
2023-05-08T04:10:03.283Z,6.57
2023-05-08T04:12:46.836Z,7.03
2023-05-08T04:15:22.672Z,6.97
2023-05-08T04:18:00.582Z,6.60
2023-05-08T04:20:30.392Z,6.40
2023-05-08T04:22:59.576Z,6.38
2023-05-08T04:25:28.569Z,6.28
2023-05-08T04:27:57.910Z,6.00
2023-05-08T04:30:26.211Z,6.88
2023-05-08T04:32:55.393Z,6.47
2023-05-08T04:35:23.441Z,5.78
2023-05-08T04:37:51.381Z,6.30
2023-05-08T04:40:19.032Z,5.55
2023-05-08T04:42:47.855Z,6.35
2023-05-08T04:45:18.614Z,5.80
2023-05-08T04:47:46.166Z,5.07
2023-05-08T04:50:13.717Z,5.95
2023-05-08T04:52:42.797Z,6.30
2023-05-08T04:55:11.347Z,5.55
2023-05-08T04:57:39.770Z,5.38
2023-05-08T05:00:08.296Z,5.95
2023-05-08T05:02:39.659Z,5.38
2023-05-08T05:05:08.188Z,5.28
2023-05-08T05:07:36.059Z,5.80
2023-05-08T05:10:04.406Z,4.57
2023-05-08T05:12:33.733Z,4.72
2023-05-08T05:15:01.636Z,4.60
2023-05-08T05:17:33.471Z,4.80
2023-05-08T05:20:01.353Z,4.18
2023-05-08T05:22:29.276Z,4.22
2023-05-08T05:24:56.843Z,4.38
2023-05-08T05:27:25.085Z,4.25
2023-05-08T05:29:52.709Z,3.95
2023-05-08T05:32:20.845Z,4.25
2023-05-08T05:34:48.821Z,3.83
2023-05-08T05:37:16.758Z,3.85
2023-05-08T05:39:44.225Z,3.45
2023-05-08T05:42:11.861Z,3.58
2023-05-08T05:44:39.801Z,3.10
2023-05-08T05:47:10.162Z,3.22
2023-05-08T05:49:39.982Z,3.63
2023-05-08T05:52:07.729Z,3.10
2023-05-08T05:54:35.664Z,2.72
2023-05-08T05:57:03.467Z,2.97
2023-05-08T05:59:31.469Z,2.95
2023-05-08T06:01:59.153Z,2.65
2023-05-08T06:04:27.077Z,2.92
2023-05-08T06:06:54.984Z,2.45
2023-05-08T06:09:22.792Z,2.35
2023-05-08T06:11:52.414Z,2.72
2023-05-08T06:14:20.505Z,2.33
2023-05-08T06:16:48.277Z,2.20
2023-05-08T06:19:16.591Z,2.47
2023-05-08T06:21:44.277Z,2.20
2023-05-08T06:24:11.891Z,2.40
2023-05-08T06:26:41.999Z,2.63
2023-05-08T06:29:09.717Z,2.50
2023-05-08T06:31:37.335Z,2.13
2023-05-08T06:34:05.012Z,2.20
2023-05-08T06:36:32.984Z,2.50
2023-05-08T06:39:00.795Z,2.20
2023-05-08T06:41:28.390Z,2.53
2023-05-08T06:43:56.180Z,2.40
2023-05-08T06:46:23.890Z,2.17
2023-05-08T06:48:51.442Z,2.00
2023-05-08T06:51:23.318Z,2.05
2023-05-08T06:56:18.250Z,1.90
2023-05-08T06:58:56.540Z,1.60
2023-05-08T07:01:32.521Z,1.60
2023-05-08T07:04:00.785Z,1.67
2023-05-08T07:06:28.392Z,1.63
2023-05-08T07:08:56.138Z,1.88
2023-05-08T07:11:24.163Z,1.83
2023-05-08T07:13:51.875Z,1.35
2023-05-08T07:16:19.357Z,1.67
2023-05-08T07:18:47.279Z,1.40
2023-05-08T07:21:16.096Z,1.60
2023-05-08T07:23:43.944Z,1.50
2023-05-08T07:26:11.508Z,1.35
2023-05-08T07:28:39.116Z,1.63
2023-05-08T07:31:09.658Z,1.20
2023-05-08T07:33:38.026Z,1.40
2023-05-08T07:36:06.914Z,1.42
2023-05-08T07:38:34.618Z,1.50
2023-05-08T07:41:02.201Z,1.40
2023-05-08T07:43:29.793Z,1.20
2023-05-08T07:45:58.084Z,1.40
2023-05-08T07:48:25.749Z,1.27
2023-05-08T07:50:53.212Z,1.20
2023-05-08T07:53:20.746Z,1.10
2023-05-08T07:55:48.263Z,1.00
2023-05-08T07:58:15.702Z,0.95
2023-05-08T08:00:45.643Z,1.10
2023-05-08T08:03:13.282Z,1.05
2023-05-08T08:05:42.223Z,0.80
2023-05-08T08:08:09.812Z,0.90
2023-05-08T08:10:37.392Z,0.80
2023-05-08T08:13:05.465Z,0.80
2023-05-08T08:15:33.079Z,1.17
2023-05-08T08:18:00.824Z,0.68
2023-05-08T08:20:30.854Z,1.60
2023-05-08T08:22:58.719Z,1.08
2023-05-08T08:25:27.731Z,0.82
2023-05-08T08:27:56.312Z,0.90
2023-05-08T08:30:24.236Z,0.85
2023-05-08T08:32:52.198Z,0.85
2023-05-08T08:35:19.996Z,0.90
2023-05-08T08:37:47.736Z,0.70
2023-05-08T08:40:15.448Z,0.70
2023-05-08T08:42:43.326Z,1.48
2023-05-08T08:45:11.779Z,0.80
2023-05-08T08:47:43.263Z,0.75
2023-05-08T08:50:14.563Z,0.70
2023-05-08T08:53:01.784Z,0.80
2023-05-08T08:55:31.209Z,0.75
2023-05-08T08:58:27.506Z,0.75
2023-05-08T09:00:56.283Z,0.70
2023-05-08T09:03:24.025Z,0.80
2023-05-08T09:05:52.236Z,0.70
2023-05-08T09:08:20.240Z,0.70
2023-05-08T09:10:47.778Z,0.68
2023-05-08T09:13:20.011Z,0.60
2023-05-08T09:15:50.292Z,0.70
2023-05-08T09:18:17.953Z,0.80
2023-05-08T09:20:45.639Z,0.60
2023-05-08T09:23:14.885Z,0.60
2023-05-08T09:25:47.651Z,0.70
2023-05-08T09:28:23.489Z,1.25
2023-05-08T09:30:59.526Z,0.70
2023-05-08T09:33:28.437Z,0.70
2023-05-08T09:35:57.389Z,0.80
2023-05-08T09:38:57.603Z,0.70
2023-05-08T09:41:28.268Z,0.60
2023-05-08T09:44:04.992Z,0.50
2023-05-08T09:46:34.328Z,0.70
2023-05-08T09:49:03.599Z,0.80
2023-05-08T09:51:32.166Z,0.70
2023-05-08T09:54:00.724Z,0.70
2023-05-08T09:56:37.270Z,0.63
2023-05-08T09:59:21.786Z,0.85
2023-05-08T10:01:49.340Z,0.75
2023-05-08T10:04:16.913Z,0.60
2023-05-08T10:06:44.455Z,0.70
2023-05-08T10:09:14.421Z,0.57
2023-05-08T10:11:52.086Z,0.65
2023-05-08T10:14:20.652Z,1.08
2023-05-08T10:16:51.874Z,0.70
2023-05-08T10:19:21.325Z,0.65
2023-05-08T10:21:54.126Z,1.35
2023-05-08T10:24:27.650Z,1.33
2023-05-08T10:27:12.814Z,1.00
2023-05-08T10:29:58.418Z,0.80
2023-05-08T10:32:28.746Z,0.88
2023-05-08T10:35:00.348Z,1.02
2023-05-08T10:37:30.308Z,0.93
2023-05-08T10:39:58.706Z,0.80
2023-05-08T10:42:27.832Z,1.00
2023-05-08T10:44:56.321Z,1.00
2023-05-08T10:48:02.651Z,0.88
2023-05-08T10:51:08.193Z,1.40
2023-05-08T10:53:55.744Z,1.50
2023-05-08T10:56:27.532Z,0.77
2023-05-08T11:01:28.501Z,0.80
2023-05-08T11:03:56.776Z,0.88
2023-05-08T11:06:45.836Z,0.82
2023-05-08T11:09:27.135Z,1.35
2023-05-08T11:12:20.044Z,0.93
2023-05-08T11:15:09.830Z,0.98
2023-05-08T11:17:39.263Z,0.90
2023-05-08T11:20:07.532Z,1.00
2023-05-08T11:22:37.014Z,0.88
2023-05-08T11:25:11.047Z,0.90
2023-05-08T11:28:19.557Z,0.77
2023-05-08T11:30:47.172Z,0.88
2023-05-08T11:33:15.675Z,1.10
2023-05-08T11:36:14.116Z,0.90
2023-05-08T11:38:43.978Z,1.05
2023-05-08T11:41:22.139Z,0.93
2023-05-08T11:44:25.258Z,0.80
2023-05-08T11:46:54.646Z,0.75
2023-05-08T11:49:28.033Z,0.88
2023-05-08T11:51:59.205Z,0.98
2023-05-08T11:54:30.929Z,0.75
2023-05-08T11:56:59.685Z,1.15
2023-05-08T11:59:27.449Z,0.80
2023-05-08T12:04:25.676Z,1.00
2023-05-08T12:06:58.134Z,1.00
2023-05-08T12:09:25.784Z,0.88
2023-05-08T12:11:58.003Z,0.80
2023-05-08T12:14:25.669Z,1.20
2023-05-08T12:16:53.155Z,1.00
2023-05-08T12:19:20.966Z,0.70
2023-05-08T12:21:49.165Z,0.80
2023-05-08T12:24:23.150Z,0.95
2023-05-08T12:26:55.704Z,0.90
2023-05-08T12:29:24.193Z,0.82
2023-05-08T12:31:53.244Z,1.08
2023-05-08T12:34:21.890Z,1.05
2023-05-08T12:36:51.563Z,1.08
2023-05-08T12:39:20.017Z,0.70
2023-05-08T12:41:52.478Z,1.13
2023-05-08T12:44:22.300Z,0.77
2023-05-08T12:46:51.840Z,1.00
2023-05-08T12:49:30.506Z,0.80
2023-05-08T12:52:08.603Z,1.02
2023-05-08T12:54:41.403Z,1.08
2023-05-08T12:57:22.703Z,1.17
2023-05-08T12:59:50.546Z,2.42
2023-05-08T13:02:22.135Z,1.00
2023-05-08T13:04:56.146Z,1.05
2023-05-08T13:07:23.989Z,0.95
2023-05-08T13:10:04.666Z,1.20
2023-05-08T13:12:33.445Z,1.08
2023-05-08T13:15:01.232Z,1.13
2023-05-08T13:17:29.164Z,1.00
2023-05-08T13:19:56.687Z,0.90
2023-05-08T13:22:27.206Z,0.77
2023-05-08T13:24:54.683Z,0.93
2023-05-08T13:27:22.772Z,1.10
2023-05-08T13:29:50.416Z,1.10
2023-05-08T13:32:18.054Z,0.88
2023-05-08T13:34:50.463Z,0.90
2023-05-08T13:37:19.991Z,1.08
2023-05-08T13:39:47.424Z,0.90
2023-05-08T13:42:14.815Z,0.90
2023-05-08T13:44:42.301Z,1.20
2023-05-08T13:47:10.309Z,0.88
2023-05-08T13:49:37.817Z,0.90
2023-05-08T13:52:05.473Z,0.93
2023-05-08T13:54:32.927Z,1.35
2023-05-08T13:57:01.002Z,1.40
2023-05-08T13:59:29.213Z,1.33
2023-05-08T14:01:57.488Z,1.10
2023-05-08T14:04:25.072Z,0.85
2023-05-08T14:06:53.013Z,1.13
2023-05-08T14:09:20.461Z,1.25
2023-05-08T14:11:47.961Z,1.27
2023-05-08T14:14:15.481Z,1.15
2023-05-08T14:16:43.110Z,1.05
2023-05-08T14:19:11.228Z,1.20
2023-05-08T14:21:41.638Z,1.45
2023-05-08T14:24:09.404Z,1.08
2023-05-08T14:26:37.060Z,1.20
2023-05-08T14:29:05.021Z,1.17
2023-05-08T14:31:32.608Z,1.30
2023-05-08T14:34:00.352Z,1.05
2023-05-08T14:36:27.758Z,0.95
2023-05-08T14:38:55.222Z,1.00
2023-05-08T14:41:22.883Z,1.20
2023-05-08T14:43:50.314Z,1.40
2023-05-08T14:46:17.849Z,1.23
2023-05-08T14:48:45.338Z,1.10
2023-05-08T14:51:14.114Z,1.30
2023-05-08T14:53:41.773Z,1.67
2023-05-08T14:56:09.607Z,1.23
2023-05-08T14:58:37.252Z,1.10
2023-05-08T15:01:05.483Z,1.08
2023-05-08T15:03:33.065Z,1.48
2023-05-08T15:06:00.566Z,1.30
2023-05-08T15:08:28.051Z,1.13
2023-05-08T15:10:55.396Z,1.23
2023-05-08T15:13:22.864Z,1.30
2023-05-08T15:15:51.075Z,1.05
2023-05-08T15:18:18.655Z,1.00
2023-05-08T15:20:46.081Z,1.38
2023-05-08T15:23:13.534Z,1.50
2023-05-08T15:25:40.986Z,1.17
2023-05-08T15:28:09.559Z,1.10
2023-05-08T15:30:36.931Z,1.15
2023-05-08T15:33:04.391Z,1.20
2023-05-08T15:35:31.948Z,1.60
2023-05-08T15:38:04.649Z,1.10
2023-05-08T15:40:32.737Z,1.20
2023-05-08T15:43:01.036Z,1.38
2023-05-08T15:45:28.559Z,1.30
2023-05-08T15:47:56.484Z,1.25
2023-05-08T15:50:24.034Z,1.55
2023-05-08T15:52:51.517Z,1.45
2023-05-08T15:55:19.436Z,1.20
2023-05-08T15:57:48.151Z,4.35
2023-05-08T16:00:16.050Z,1.55
2023-05-08T16:02:43.661Z,1.50
2023-05-08T16:05:11.500Z,1.50
2023-05-08T16:07:39.295Z,1.42
2023-05-08T16:10:08.029Z,1.50
2023-05-08T16:12:35.673Z,1.40
2023-05-08T16:15:03.175Z,1.33
2023-05-08T16:17:30.793Z,1.30
2023-05-08T16:19:58.687Z,1.15
2023-05-08T16:22:26.306Z,1.20
2023-05-08T16:24:54.204Z,1.08
2023-05-08T16:27:21.576Z,1.05
2023-05-08T16:29:49.064Z,1.35
2023-05-08T16:32:16.592Z,1.42
2023-05-08T16:34:44.190Z,1.55
2023-05-08T16:37:11.610Z,1.08
2023-05-08T16:39:39.231Z,1.50
2023-05-08T16:42:07.524Z,1.58
2023-05-08T16:44:36.120Z,2.05
2023-05-08T16:47:03.744Z,1.35
2023-05-08T16:49:31.247Z,1.42
2023-05-08T16:51:59.274Z,1.45
2023-05-08T16:54:26.739Z,1.70
2023-05-08T16:56:54.361Z,1.30
2023-05-08T16:59:21.850Z,1.20
2023-05-08T17:01:49.301Z,1.75
2023-05-08T17:04:16.826Z,1.33
2023-05-08T17:06:44.396Z,1.50
2023-05-08T17:09:11.890Z,2.13
2023-05-08T17:11:39.297Z,1.40
2023-05-08T17:14:07.100Z,1.65
2023-05-08T17:16:34.648Z,1.48
2023-05-08T17:19:02.129Z,1.20
2023-05-08T17:21:31.142Z,1.80
2023-05-08T17:24:01.485Z,1.58
2023-05-08T17:26:33.548Z,1.70
2023-05-08T17:29:01.285Z,1.33
2023-05-08T17:31:28.828Z,1.90
2023-05-08T17:33:56.308Z,1.83
2023-05-08T17:36:23.777Z,1.73
2023-05-08T17:38:52.252Z,1.85
2023-05-08T17:41:19.783Z,1.40
2023-05-08T17:43:47.206Z,1.98
2023-05-08T17:46:14.719Z,1.40
2023-05-08T17:48:42.197Z,1.63
2023-05-08T17:51:12.635Z,1.60
2023-05-08T17:53:40.728Z,1.83
2023-05-08T17:56:08.779Z,2.13
2023-05-08T17:58:36.381Z,2.20
2023-05-08T18:01:04.014Z,2.30
2023-05-08T18:03:32.035Z,1.65
2023-05-08T18:05:59.466Z,1.50
2023-05-08T18:08:27.151Z,2.08
2023-05-08T18:10:54.693Z,1.70
2023-05-08T18:13:22.266Z,2.20
2023-05-08T18:15:50.135Z,2.55
2023-05-08T18:18:17.652Z,2.03
2023-05-08T18:20:45.107Z,2.10
2023-05-08T18:23:12.550Z,2.65
2023-05-08T18:25:39.928Z,2.22
2023-05-08T18:28:07.384Z,2.13
2023-05-08T18:30:36.510Z,1.90
2023-05-08T18:33:04.118Z,2.35
2023-05-08T18:35:31.804Z,2.53
2023-05-08T18:37:59.238Z,2.83
2023-05-08T18:40:26.664Z,2.30
2023-05-08T18:42:54.150Z,2.63
2023-05-08T18:45:21.709Z,2.55
2023-05-08T18:47:49.310Z,2.50
2023-05-08T18:50:17.121Z,2.75
2023-05-08T18:52:44.625Z,3.40
2023-05-08T18:55:12.030Z,2.92
2023-05-08T18:57:39.483Z,2.97
2023-05-08T19:00:08.183Z,2.80
2023-05-08T19:02:36.117Z,2.67
2023-05-08T19:05:04.416Z,3.38
2023-05-08T19:07:31.862Z,2.85
2023-05-08T19:09:59.274Z,2.70
2023-05-08T19:12:27.087Z,2.47
2023-05-08T19:14:55.208Z,2.80
2023-05-08T19:17:22.920Z,2.97
2023-05-08T19:19:51.946Z,3.15
2023-05-08T19:22:19.608Z,3.35
2023-05-08T19:24:47.126Z,3.10
2023-05-08T19:27:14.552Z,3.20
2023-05-08T19:29:42.032Z,3.90
2023-05-08T19:32:09.494Z,2.95
2023-05-08T19:34:38.594Z,2.92
2023-05-08T19:37:06.613Z,3.42
2023-05-08T19:39:34.169Z,3.33
2023-05-08T19:42:01.657Z,3.10
2023-05-08T19:44:30.124Z,3.20
2023-05-08T19:46:57.507Z,4.03
2023-05-08T19:49:24.953Z,3.30
2023-05-08T19:51:52.474Z,3.33
2023-05-08T19:54:19.932Z,4.03
2023-05-08T19:56:47.575Z,3.75
2023-05-08T19:59:15.040Z,3.63
2023-05-08T20:01:42.621Z,3.50
2023-05-08T20:04:10.235Z,3.10
2023-05-08T20:06:38.436Z,2.80
2023-05-08T20:09:06.460Z,3.15
2023-05-08T20:11:33.941Z,3.22
2023-05-08T20:14:01.423Z,3.30
2023-05-08T20:16:28.849Z,3.58
2023-05-08T20:18:56.508Z,3.95
2023-05-08T20:21:24.210Z,3.80
2023-05-08T20:23:51.726Z,3.20
2023-05-08T20:26:19.183Z,2.90
2023-05-08T20:28:46.687Z,3.35
2023-05-08T20:31:14.228Z,3.25
2023-05-08T20:33:44.834Z,2.92
2023-05-08T20:36:12.351Z,3.08
2023-05-08T20:38:39.930Z,3.17
2023-05-08T20:41:07.383Z,3.78
2023-05-08T20:43:34.892Z,3.47
2023-05-08T20:46:02.499Z,3.30
2023-05-08T20:48:30.060Z,3.35
2023-05-08T20:50:57.435Z,4.03
2023-05-08T20:53:24.915Z,3.10
2023-05-08T20:56:00.659Z,3.53
2023-05-08T20:58:28.223Z,3.58
2023-05-08T21:00:55.848Z,3.65
2023-05-08T21:03:23.418Z,3.60
2023-05-08T21:05:50.905Z,2.70
2023-05-08T21:08:22.146Z,3.22
2023-05-08T21:10:50.202Z,3.20
2023-05-08T21:13:18.177Z,3.20
2023-05-08T21:15:48.445Z,3.20
2023-05-08T21:18:16.140Z,2.92
2023-05-08T21:20:50.364Z,3.53
2023-05-08T21:23:18.839Z,3.10
2023-05-08T21:25:47.260Z,3.17
2023-05-08T21:28:16.222Z,2.80
2023-05-08T21:30:44.168Z,2.88
2023-05-08T21:33:13.803Z,3.17
2023-05-08T21:35:42.365Z,2.80
2023-05-08T21:38:12.097Z,3.17
2023-05-08T21:40:39.877Z,2.97
2023-05-08T21:43:07.567Z,3.00
2023-05-08T21:45:35.250Z,3.10
2023-05-08T21:48:02.971Z,3.03
2023-05-08T21:50:30.782Z,3.53
2023-05-08T21:52:58.237Z,3.22
2023-05-08T21:55:26.000Z,3.55
2023-05-08T21:57:53.911Z,3.85
2023-05-08T22:00:21.859Z,3.30
2023-05-08T22:02:49.314Z,3.33
2023-05-08T22:05:16.898Z,3.25
2023-05-08T22:07:44.451Z,2.85
2023-05-08T22:10:13.925Z,3.08
2023-05-08T22:12:41.537Z,3.00
2023-05-08T22:15:25.726Z,3.50
2023-05-08T22:17:56.558Z,3.22
2023-05-08T22:20:24.340Z,3.25
2023-05-08T22:22:51.942Z,3.28
2023-05-08T22:25:21.895Z,3.22
2023-05-08T22:27:49.512Z,3.47
2023-05-08T22:30:16.925Z,3.20
2023-05-08T22:32:45.654Z,3.30
2023-05-08T22:35:14.367Z,3.40
2023-05-08T22:37:42.003Z,3.13
2023-05-08T22:40:10.077Z,3.13
2023-05-08T22:42:38.094Z,2.60
2023-05-08T22:45:06.305Z,2.75
2023-05-08T22:47:34.674Z,2.63
2023-05-08T22:50:03.611Z,2.30
2023-05-08T22:52:31.684Z,2.80
2023-05-08T22:54:59.109Z,2.70
2023-05-08T22:57:26.557Z,3.60
2023-05-08T22:59:53.990Z,2.75
2023-05-08T23:02:21.852Z,2.53
2023-05-08T23:04:50.708Z,2.80
2023-05-08T23:07:18.202Z,2.70
2023-05-08T23:09:45.572Z,2.85
2023-05-08T23:12:13.103Z,2.67
2023-05-08T23:14:40.733Z,3.00
2023-05-08T23:17:08.622Z,2.60
2023-05-08T23:19:36.152Z,2.45
2023-05-08T23:22:03.592Z,2.63
2023-05-08T23:24:30.997Z,2.13
2023-05-08T23:26:58.376Z,2.00
2023-05-08T23:29:25.763Z,3.00
2023-05-08T23:31:53.384Z,2.38
2023-05-08T23:34:20.852Z,2.30
2023-05-08T23:36:48.269Z,2.47
2023-05-08T23:39:15.663Z,2.47
2023-05-08T23:41:43.082Z,2.30
2023-05-08T23:44:10.441Z,2.28
2023-05-08T23:46:37.968Z,2.30
2023-05-08T23:49:05.820Z,3.15
2023-05-08T23:51:33.356Z,2.72
2023-05-08T23:54:01.112Z,2.58
2023-05-08T23:56:29.920Z,3.42
2023-05-08T23:58:57.437Z,2.63
